sensor_id;sensor_type;location;lat;lon;timestamp;P1;durP1;ratioP1;P2;durP2;ratioP2
81242;SDS011;70716;50.074;14.496;2023-06-22T00:01:22;8.43;;;4.70;;
81242;SDS011;70716;50.074;14.496;2023-06-22T00:06:13;8.30;;;4.60;;
81242;SDS011;70716;50.074;14.496;2023-06-22T00:08:39;12.15;;;4.78;;
81242;SDS011;70716;50.074;14.496;2023-06-22T00:11:06;8.27;;;4.68;;
81242;SDS011;70716;50.074;14.496;2023-06-22T00:13:32;10.75;;;4.95;;
81242;SDS011;70716;50.074;14.496;2023-06-22T00:15:57;10.85;;;5.47;;
81242;SDS011;70716;50.074;14.496;2023-06-22T00:18:22;9.77;;;5.25;;
81242;SDS011;70716;50.074;14.496;2023-06-22T00:20:55;8.38;;;4.63;;
81242;SDS011;70716;50.074;14.496;2023-06-22T00:23:23;11.57;;;4.88;;
81242;SDS011;70716;50.074;14.496;2023-06-22T00:25:50;8.40;;;4.70;;
81242;SDS011;70716;50.074;14.496;2023-06-22T00:28:16;9.73;;;4.55;;
81242;SDS011;70716;50.074;14.496;2023-06-22T00:30:41;10.27;;;4.32;;
81242;SDS011;70716;50.074;14.496;2023-06-22T00:33:07;8.82;;;4.20;;
81242;SDS011;70716;50.074;14.496;2023-06-22T00:35:32;9.70;;;5.05;;
81242;SDS011;70716;50.074;14.496;2023-06-22T00:38:01;9.98;;;4.50;;
81242;SDS011;70716;50.074;14.496;2023-06-22T00:40:31;11.23;;;4.43;;
81242;SDS011;70716;50.074;14.496;2023-06-22T00:43:01;9.93;;;5.00;;
81242;SDS011;70716;50.074;14.496;2023-06-22T00:45:26;9.63;;;5.10;;
81242;SDS011;70716;50.074;14.496;2023-06-22T00:47:52;9.63;;;5.53;;
81242;SDS011;70716;50.074;14.496;2023-06-22T00:50:20;8.88;;;5.05;;
81242;SDS011;70716;50.074;14.496;2023-06-22T00:52:50;9.90;;;4.93;;
81242;SDS011;70716;50.074;14.496;2023-06-22T00:55:18;10.77;;;5.10;;
81242;SDS011;70716;50.074;14.496;2023-06-22T00:57:47;9.07;;;4.90;;
81242;SDS011;70716;50.074;14.496;2023-06-22T01:00:16;11.15;;;5.18;;
81242;SDS011;70716;50.074;14.496;2023-06-22T01:02:49;10.23;;;5.57;;
81242;SDS011;70716;50.074;14.496;2023-06-22T01:05:23;11.35;;;5.57;;
81242;SDS011;70716;50.074;14.496;2023-06-22T01:10:36;11.07;;;5.70;;
81242;SDS011;70716;50.074;14.496;2023-06-22T01:13:06;10.40;;;5.07;;
81242;SDS011;70716;50.074;14.496;2023-06-22T01:15:41;9.65;;;5.18;;
81242;SDS011;70716;50.074;14.496;2023-06-22T01:18:14;9.43;;;4.43;;
81242;SDS011;70716;50.074;14.496;2023-06-22T01:20:42;10.07;;;5.40;;
81242;SDS011;70716;50.074;14.496;2023-06-22T01:28:53;10.77;;;5.80;;
81242;SDS011;70716;50.074;14.496;2023-06-22T01:31:21;9.13;;;5.43;;
81242;SDS011;70716;50.074;14.496;2023-06-22T01:33:55;9.77;;;5.15;;
81242;SDS011;70716;50.074;14.496;2023-06-22T01:36:25;9.57;;;5.70;;
81242;SDS011;70716;50.074;14.496;2023-06-22T01:38:52;10.38;;;5.57;;
81242;SDS011;70716;50.074;14.496;2023-06-22T01:41:21;11.05;;;5.30;;
81242;SDS011;70716;50.074;14.496;2023-06-22T01:43:49;10.18;;;5.10;;
81242;SDS011;70716;50.074;14.496;2023-06-22T01:46:16;10.02;;;6.03;;
81242;SDS011;70716;50.074;14.496;2023-06-22T01:48:44;9.50;;;5.35;;
81242;SDS011;70716;50.074;14.496;2023-06-22T01:51:14;9.05;;;4.72;;
81242;SDS011;70716;50.074;14.496;2023-06-22T01:53:41;10.25;;;5.07;;
81242;SDS011;70716;50.074;14.496;2023-06-22T01:56:10;10.85;;;5.13;;
81242;SDS011;70716;50.074;14.496;2023-06-22T01:58:37;8.55;;;4.85;;
81242;SDS011;70716;50.074;14.496;2023-06-22T02:01:13;9.32;;;5.28;;
81242;SDS011;70716;50.074;14.496;2023-06-22T02:03:50;9.38;;;5.57;;
81242;SDS011;70716;50.074;14.496;2023-06-22T02:06:42;11.43;;;5.28;;
81242;SDS011;70716;50.074;14.496;2023-06-22T02:09:14;9.18;;;4.88;;
81242;SDS011;70716;50.074;14.496;2023-06-22T02:11:42;11.38;;;5.88;;
81242;SDS011;70716;50.074;14.496;2023-06-22T02:14:13;10.88;;;5.68;;
81242;SDS011;70716;50.074;14.496;2023-06-22T02:16:40;9.57;;;5.63;;
81242;SDS011;70716;50.074;14.496;2023-06-22T02:21:33;10.02;;;5.07;;
81242;SDS011;70716;50.074;14.496;2023-06-22T02:23:58;9.85;;;5.22;;
81242;SDS011;70716;50.074;14.496;2023-06-22T02:26:27;16.10;;;5.50;;
81242;SDS011;70716;50.074;14.496;2023-06-22T02:28:56;10.82;;;5.45;;
81242;SDS011;70716;50.074;14.496;2023-06-22T02:31:22;10.43;;;4.93;;
81242;SDS011;70716;50.074;14.496;2023-06-22T02:33:48;10.80;;;5.28;;
81242;SDS011;70716;50.074;14.496;2023-06-22T02:36:14;10.73;;;6.13;;
81242;SDS011;70716;50.074;14.496;2023-06-22T02:38:43;11.93;;;5.82;;
81242;SDS011;70716;50.074;14.496;2023-06-22T02:41:14;10.98;;;5.43;;
81242;SDS011;70716;50.074;14.496;2023-06-22T02:43:50;9.73;;;4.65;;
81242;SDS011;70716;50.074;14.496;2023-06-22T02:46:18;12.98;;;5.68;;
81242;SDS011;70716;50.074;14.496;2023-06-22T02:48:43;11.77;;;6.00;;
81242;SDS011;70716;50.074;14.496;2023-06-22T02:51:09;12.05;;;5.40;;
81242;SDS011;70716;50.074;14.496;2023-06-22T02:53:34;13.23;;;5.65;;
81242;SDS011;70716;50.074;14.496;2023-06-22T02:56:03;10.48;;;5.47;;
81242;SDS011;70716;50.074;14.496;2023-06-22T02:58:31;11.27;;;5.32;;
81242;SDS011;70716;50.074;14.496;2023-06-22T03:01:04;11.00;;;5.38;;
81242;SDS011;70716;50.074;14.496;2023-06-22T03:03:30;9.80;;;5.43;;
81242;SDS011;70716;50.074;14.496;2023-06-22T03:05:55;13.10;;;5.78;;
81242;SDS011;70716;50.074;14.496;2023-06-22T03:08:21;19.08;;;7.75;;
81242;SDS011;70716;50.074;14.496;2023-06-22T03:10:46;9.77;;;5.38;;
81242;SDS011;70716;50.074;14.496;2023-06-22T03:13:11;9.15;;;5.47;;
81242;SDS011;70716;50.074;14.496;2023-06-22T03:15:38;12.75;;;5.50;;
81242;SDS011;70716;50.074;14.496;2023-06-22T03:18:03;10.80;;;6.07;;
81242;SDS011;70716;50.074;14.496;2023-06-22T03:20:29;10.90;;;5.15;;
81242;SDS011;70716;50.074;14.496;2023-06-22T03:22:58;10.75;;;5.75;;
81242;SDS011;70716;50.074;14.496;2023-06-22T03:25:24;9.13;;;4.63;;
81242;SDS011;70716;50.074;14.496;2023-06-22T03:27:49;10.88;;;5.07;;
81242;SDS011;70716;50.074;14.496;2023-06-22T03:30:14;10.13;;;5.13;;
81242;SDS011;70716;50.074;14.496;2023-06-22T03:32:40;13.05;;;5.50;;
81242;SDS011;70716;50.074;14.496;2023-06-22T03:35:05;11.10;;;5.30;;
81242;SDS011;70716;50.074;14.496;2023-06-22T03:37:31;9.77;;;5.43;;
81242;SDS011;70716;50.074;14.496;2023-06-22T03:39:57;12.57;;;5.72;;
81242;SDS011;70716;50.074;14.496;2023-06-22T03:42:28;11.85;;;5.65;;
81242;SDS011;70716;50.074;14.496;2023-06-22T03:44:53;13.27;;;6.10;;
81242;SDS011;70716;50.074;14.496;2023-06-22T03:47:19;11.45;;;5.53;;
81242;SDS011;70716;50.074;14.496;2023-06-22T03:49:44;12.35;;;5.78;;
81242;SDS011;70716;50.074;14.496;2023-06-22T03:52:09;10.65;;;6.20;;
81242;SDS011;70716;50.074;14.496;2023-06-22T03:54:35;10.75;;;6.15;;
81242;SDS011;70716;50.074;14.496;2023-06-22T03:57:04;10.30;;;5.40;;
81242;SDS011;70716;50.074;14.496;2023-06-22T03:59:30;11.38;;;6.72;;
81242;SDS011;70716;50.074;14.496;2023-06-22T04:01:55;11.18;;;6.45;;
81242;SDS011;70716;50.074;14.496;2023-06-22T04:04:24;10.77;;;6.10;;
81242;SDS011;70716;50.074;14.496;2023-06-22T04:06:49;14.05;;;7.15;;
81242;SDS011;70716;50.074;14.496;2023-06-22T04:09:14;9.32;;;6.10;;
81242;SDS011;70716;50.074;14.496;2023-06-22T04:11:40;10.30;;;5.60;;
81242;SDS011;70716;50.074;14.496;2023-06-22T04:14:05;10.32;;;5.60;;
81242;SDS011;70716;50.074;14.496;2023-06-22T04:16:31;10.70;;;6.13;;
81242;SDS011;70716;50.074;14.496;2023-06-22T04:18:57;12.25;;;5.95;;
81242;SDS011;70716;50.074;14.496;2023-06-22T04:21:22;12.57;;;6.75;;
81242;SDS011;70716;50.074;14.496;2023-06-22T04:23:48;12.70;;;6.47;;
81242;SDS011;70716;50.074;14.496;2023-06-22T04:26:14;10.82;;;6.47;;
81242;SDS011;70716;50.074;14.496;2023-06-22T04:28:40;11.70;;;6.18;;
81242;SDS011;70716;50.074;14.496;2023-06-22T04:31:06;10.55;;;6.32;;
81242;SDS011;70716;50.074;14.496;2023-06-22T04:33:31;11.55;;;5.60;;
81242;SDS011;70716;50.074;14.496;2023-06-22T04:35:57;12.65;;;6.13;;
81242;SDS011;70716;50.074;14.496;2023-06-22T04:38:23;10.43;;;6.07;;
81242;SDS011;70716;50.074;14.496;2023-06-22T04:40:52;12.45;;;6.63;;
81242;SDS011;70716;50.074;14.496;2023-06-22T04:43:20;11.25;;;5.85;;
81242;SDS011;70716;50.074;14.496;2023-06-22T04:45:45;11.02;;;6.15;;
81242;SDS011;70716;50.074;14.496;2023-06-22T04:48:11;11.98;;;6.10;;
81242;SDS011;70716;50.074;14.496;2023-06-22T04:50:41;11.48;;;6.40;;
81242;SDS011;70716;50.074;14.496;2023-06-22T04:53:07;11.73;;;6.28;;
81242;SDS011;70716;50.074;14.496;2023-06-22T04:55:34;11.38;;;7.15;;
81242;SDS011;70716;50.074;14.496;2023-06-22T04:58:02;11.73;;;5.93;;
81242;SDS011;70716;50.074;14.496;2023-06-22T05:00:30;11.48;;;6.55;;
81242;SDS011;70716;50.074;14.496;2023-06-22T05:02:59;11.52;;;6.25;;
81242;SDS011;70716;50.074;14.496;2023-06-22T05:05:29;11.60;;;5.75;;
81242;SDS011;70716;50.074;14.496;2023-06-22T05:07:56;10.95;;;6.57;;
81242;SDS011;70716;50.074;14.496;2023-06-22T05:10:25;11.07;;;5.78;;
81242;SDS011;70716;50.074;14.496;2023-06-22T05:12:51;10.30;;;5.90;;
81242;SDS011;70716;50.074;14.496;2023-06-22T05:15:17;12.05;;;6.05;;
81242;SDS011;70716;50.074;14.496;2023-06-22T05:17:44;11.80;;;5.70;;
81242;SDS011;70716;50.074;14.496;2023-06-22T05:20:10;9.40;;;5.72;;
81242;SDS011;70716;50.074;14.496;2023-06-22T05:22:37;10.95;;;6.03;;
81242;SDS011;70716;50.074;14.496;2023-06-22T05:25:09;11.98;;;6.82;;
81242;SDS011;70716;50.074;14.496;2023-06-22T05:27:38;10.68;;;6.43;;
81242;SDS011;70716;50.074;14.496;2023-06-22T05:30:07;11.52;;;6.05;;
81242;SDS011;70716;50.074;14.496;2023-06-22T05:32:33;11.98;;;5.90;;
81242;SDS011;70716;50.074;14.496;2023-06-22T05:34:59;11.77;;;5.90;;
81242;SDS011;70716;50.074;14.496;2023-06-22T05:37:25;12.07;;;7.22;;
81242;SDS011;70716;50.074;14.496;2023-06-22T05:39:51;10.95;;;6.60;;
81242;SDS011;70716;50.074;14.496;2023-06-22T05:42:20;12.40;;;6.63;;
81242;SDS011;70716;50.074;14.496;2023-06-22T05:44:48;13.68;;;6.50;;
81242;SDS011;70716;50.074;14.496;2023-06-22T05:47:13;12.25;;;6.50;;
81242;SDS011;70716;50.074;14.496;2023-06-22T05:49:39;11.82;;;7.05;;
81242;SDS011;70716;50.074;14.496;2023-06-22T05:52:04;10.63;;;7.00;;
81242;SDS011;70716;50.074;14.496;2023-06-22T05:54:30;10.77;;;7.05;;
81242;SDS011;70716;50.074;14.496;2023-06-22T05:56:55;10.98;;;6.93;;
81242;SDS011;70716;50.074;14.496;2023-06-22T05:59:22;12.50;;;7.75;;
81242;SDS011;70716;50.074;14.496;2023-06-22T06:01:50;13.38;;;7.60;;
81242;SDS011;70716;50.074;14.496;2023-06-22T06:04:19;12.00;;;7.38;;
81242;SDS011;70716;50.074;14.496;2023-06-22T06:06:44;13.60;;;8.52;;
81242;SDS011;70716;50.074;14.496;2023-06-22T06:09:13;12.90;;;7.85;;
81242;SDS011;70716;50.074;14.496;2023-06-22T06:11:43;13.07;;;8.13;;
81242;SDS011;70716;50.074;14.496;2023-06-22T06:14:10;13.27;;;8.10;;
81242;SDS011;70716;50.074;14.496;2023-06-22T06:16:35;14.10;;;8.35;;
81242;SDS011;70716;50.074;14.496;2023-06-22T06:19:01;13.43;;;7.57;;
81242;SDS011;70716;50.074;14.496;2023-06-22T06:21:32;12.90;;;6.93;;
81242;SDS011;70716;50.074;14.496;2023-06-22T06:23:57;12.77;;;8.05;;
81242;SDS011;70716;50.074;14.496;2023-06-22T06:26:23;11.80;;;8.25;;
81242;SDS011;70716;50.074;14.496;2023-06-22T06:28:53;10.63;;;7.18;;
81242;SDS011;70716;50.074;14.496;2023-06-22T06:31:19;11.57;;;8.10;;
81242;SDS011;70716;50.074;14.496;2023-06-22T06:33:45;11.52;;;8.43;;
81242;SDS011;70716;50.074;14.496;2023-06-22T06:36:11;12.05;;;7.88;;
81242;SDS011;70716;50.074;14.496;2023-06-22T06:38:40;14.55;;;8.05;;
81242;SDS011;70716;50.074;14.496;2023-06-22T06:41:08;12.20;;;7.82;;
81242;SDS011;70716;50.074;14.496;2023-06-22T06:43:33;12.50;;;8.18;;
81242;SDS011;70716;50.074;14.496;2023-06-22T06:45:59;14.23;;;8.93;;
81242;SDS011;70716;50.074;14.496;2023-06-22T06:48:24;15.18;;;9.90;;
81242;SDS011;70716;50.074;14.496;2023-06-22T06:50:50;15.07;;;8.57;;
81242;SDS011;70716;50.074;14.496;2023-06-22T06:53:15;13.07;;;8.93;;
81242;SDS011;70716;50.074;14.496;2023-06-22T06:55:41;16.23;;;9.27;;
81242;SDS011;70716;50.074;14.496;2023-06-22T06:58:06;18.98;;;9.93;;
81242;SDS011;70716;50.074;14.496;2023-06-22T07:00:37;13.93;;;7.97;;
81242;SDS011;70716;50.074;14.496;2023-06-22T07:03:08;13.40;;;8.10;;
81242;SDS011;70716;50.074;14.496;2023-06-22T07:05:35;13.88;;;8.50;;
81242;SDS011;70716;50.074;14.496;2023-06-22T07:08:00;12.38;;;8.68;;
81242;SDS011;70716;50.074;14.496;2023-06-22T07:10:32;11.38;;;7.78;;
81242;SDS011;70716;50.074;14.496;2023-06-22T07:12:57;12.60;;;7.57;;
81242;SDS011;70716;50.074;14.496;2023-06-22T07:15:22;12.98;;;7.22;;
81242;SDS011;70716;50.074;14.496;2023-06-22T07:17:48;13.30;;;7.05;;
81242;SDS011;70716;50.074;14.496;2023-06-22T07:20:13;13.25;;;8.07;;
81242;SDS011;70716;50.074;14.496;2023-06-22T07:22:40;13.50;;;7.50;;
81242;SDS011;70716;50.074;14.496;2023-06-22T07:25:10;12.98;;;7.60;;
81242;SDS011;70716;50.074;14.496;2023-06-22T07:27:39;13.95;;;8.00;;
81242;SDS011;70716;50.074;14.496;2023-06-22T07:30:10;11.65;;;7.45;;
81242;SDS011;70716;50.074;14.496;2023-06-22T07:32:36;11.00;;;7.70;;
81242;SDS011;70716;50.074;14.496;2023-06-22T07:35:02;10.77;;;7.32;;
81242;SDS011;70716;50.074;14.496;2023-06-22T07:37:28;14.82;;;8.10;;
81242;SDS011;70716;50.074;14.496;2023-06-22T07:39:54;12.48;;;8.45;;
81242;SDS011;70716;50.074;14.496;2023-06-22T07:42:23;12.65;;;7.25;;
81242;SDS011;70716;50.074;14.496;2023-06-22T07:44:51;10.40;;;7.13;;
81242;SDS011;70716;50.074;14.496;2023-06-22T07:47:16;12.70;;;7.43;;
81242;SDS011;70716;50.074;14.496;2023-06-22T07:49:44;12.20;;;7.70;;
81242;SDS011;70716;50.074;14.496;2023-06-22T07:52:10;12.63;;;7.78;;
81242;SDS011;70716;50.074;14.496;2023-06-22T07:54:36;11.77;;;7.90;;
81242;SDS011;70716;50.074;14.496;2023-06-22T07:57:01;10.88;;;7.68;;
81242;SDS011;70716;50.074;14.496;2023-06-22T07:59:27;12.63;;;7.03;;
81242;SDS011;70716;50.074;14.496;2023-06-22T08:01:54;10.05;;;7.25;;
81242;SDS011;70716;50.074;14.496;2023-06-22T08:04:23;13.65;;;7.78;;
81242;SDS011;70716;50.074;14.496;2023-06-22T08:06:48;10.70;;;7.90;;
81242;SDS011;70716;50.074;14.496;2023-06-22T08:09:14;12.40;;;7.97;;
81242;SDS011;70716;50.074;14.496;2023-06-22T08:11:40;10.98;;;7.90;;
81242;SDS011;70716;50.074;14.496;2023-06-22T08:14:05;11.27;;;7.65;;
81242;SDS011;70716;50.074;14.496;2023-06-22T08:16:30;13.00;;;7.70;;
81242;SDS011;70716;50.074;14.496;2023-06-22T08:18:56;10.15;;;7.13;;
81242;SDS011;70716;50.074;14.496;2023-06-22T08:21:21;10.95;;;7.53;;
81242;SDS011;70716;50.074;14.496;2023-06-22T08:23:47;11.57;;;8.43;;
81242;SDS011;70716;50.074;14.496;2023-06-22T08:26:13;11.30;;;7.78;;
81242;SDS011;70716;50.074;14.496;2023-06-22T08:31:05;11.30;;;7.83;;
81242;SDS011;70716;50.074;14.496;2023-06-22T08:33:30;10.52;;;6.97;;
81242;SDS011;70716;50.074;14.496;2023-06-22T08:35:56;12.55;;;7.50;;
81242;SDS011;70716;50.074;14.496;2023-06-22T08:38:26;12.90;;;8.13;;
81242;SDS011;70716;50.074;14.496;2023-06-22T08:40:51;10.23;;;7.32;;
81242;SDS011;70716;50.074;14.496;2023-06-22T08:43:17;10.00;;;7.47;;
81242;SDS011;70716;50.074;14.496;2023-06-22T08:45:42;10.90;;;7.55;;
81242;SDS011;70716;50.074;14.496;2023-06-22T08:48:07;10.57;;;7.05;;
81242;SDS011;70716;50.074;14.496;2023-06-22T08:50:33;10.75;;;7.10;;
81242;SDS011;70716;50.074;14.496;2023-06-22T08:52:58;9.88;;;7.05;;
81242;SDS011;70716;50.074;14.496;2023-06-22T08:55:23;11.00;;;7.38;;
81242;SDS011;70716;50.074;14.496;2023-06-22T08:57:49;11.13;;;8.15;;
81242;SDS011;70716;50.074;14.496;2023-06-22T09:00:14;11.85;;;6.93;;
81242;SDS011;70716;50.074;14.496;2023-06-22T09:02:51;11.63;;;8.68;;
81242;SDS011;70716;50.074;14.496;2023-06-22T09:05:16;11.10;;;7.72;;
81242;SDS011;70716;50.074;14.496;2023-06-22T09:07:42;9.25;;;6.90;;
81242;SDS011;70716;50.074;14.496;2023-06-22T09:10:08;14.13;;;7.40;;
81242;SDS011;70716;50.074;14.496;2023-06-22T09:12:34;8.85;;;6.88;;
81242;SDS011;70716;50.074;14.496;2023-06-22T09:15:01;11.05;;;7.93;;
81242;SDS011;70716;50.074;14.496;2023-06-22T09:17:28;9.50;;;7.20;;
81242;SDS011;70716;50.074;14.496;2023-06-22T09:19:56;13.32;;;7.50;;
81242;SDS011;70716;50.074;14.496;2023-06-22T09:22:23;9.77;;;7.15;;
81242;SDS011;70716;50.074;14.496;2023-06-22T09:24:49;11.98;;;7.45;;
81242;SDS011;70716;50.074;14.496;2023-06-22T09:27:17;10.18;;;6.90;;
81242;SDS011;70716;50.074;14.496;2023-06-22T09:29:42;11.00;;;7.35;;
81242;SDS011;70716;50.074;14.496;2023-06-22T09:32:10;11.23;;;7.82;;
81242;SDS011;70716;50.074;14.496;2023-06-22T09:34:39;11.98;;;7.95;;
81242;SDS011;70716;50.074;14.496;2023-06-22T13:17:21;10.05;;;6.60;;
81242;SDS011;70716;50.074;14.496;2023-06-22T13:19:46;11.18;;;6.72;;
81242;SDS011;70716;50.074;14.496;2023-06-22T13:22:31;8.55;;;6.43;;
81242;SDS011;70716;50.074;14.496;2023-06-22T13:24:59;9.82;;;7.25;;
81242;SDS011;70716;50.074;14.496;2023-06-22T13:27:25;10.20;;;6.75;;
81242;SDS011;70716;50.074;14.496;2023-06-22T13:29:50;8.93;;;6.95;;
81242;SDS011;70716;50.074;14.496;2023-06-22T13:32:16;10.07;;;7.55;;
81242;SDS011;70716;50.074;14.496;2023-06-22T13:34:42;9.60;;;6.80;;
81242;SDS011;70716;50.074;14.496;2023-06-22T13:37:10;11.30;;;7.30;;
81242;SDS011;70716;50.074;14.496;2023-06-22T13:39:39;13.48;;;7.90;;
81242;SDS011;70716;50.074;14.496;2023-06-22T13:42:05;10.32;;;7.28;;
81242;SDS011;70716;50.074;14.496;2023-06-22T13:44:34;10.77;;;7.25;;
81242;SDS011;70716;50.074;14.496;2023-06-22T13:46:59;9.63;;;7.63;;
81242;SDS011;70716;50.074;14.496;2023-06-22T13:49:24;9.93;;;6.80;;
81242;SDS011;70716;50.074;14.496;2023-06-22T13:51:50;12.10;;;6.97;;
81242;SDS011;70716;50.074;14.496;2023-06-22T13:54:16;10.20;;;6.95;;
81242;SDS011;70716;50.074;14.496;2023-06-22T13:56:45;10.50;;;7.25;;
81242;SDS011;70716;50.074;14.496;2023-06-22T13:59:10;11.38;;;7.97;;
81242;SDS011;70716;50.074;14.496;2023-06-22T14:01:36;10.55;;;6.90;;
81242;SDS011;70716;50.074;14.496;2023-06-22T14:04:03;10.77;;;6.82;;
81242;SDS011;70716;50.074;14.496;2023-06-22T14:06:29;11.05;;;6.78;;
81242;SDS011;70716;50.074;14.496;2023-06-22T14:08:58;8.60;;;6.70;;
81242;SDS011;70716;50.074;14.496;2023-06-22T14:11:24;9.85;;;6.68;;
81242;SDS011;70716;50.074;14.496;2023-06-22T14:13:50;10.95;;;7.45;;
81242;SDS011;70716;50.074;14.496;2023-06-22T14:16:18;10.70;;;7.03;;
81242;SDS011;70716;50.074;14.496;2023-06-22T14:18:44;10.35;;;7.15;;
81242;SDS011;70716;50.074;14.496;2023-06-22T14:21:10;11.00;;;7.00;;
81242;SDS011;70716;50.074;14.496;2023-06-22T14:23:35;10.38;;;7.00;;
81242;SDS011;70716;50.074;14.496;2023-06-22T14:26:02;11.27;;;8.18;;
81242;SDS011;70716;50.074;14.496;2023-06-22T14:28:28;13.15;;;7.80;;
81242;SDS011;70716;50.074;14.496;2023-06-22T14:30:53;14.80;;;7.50;;
81242;SDS011;70716;50.074;14.496;2023-06-22T14:33:18;10.50;;;7.22;;
81242;SDS011;70716;50.074;14.496;2023-06-22T14:35:44;10.02;;;7.60;;
81242;SDS011;70716;50.074;14.496;2023-06-22T14:38:09;10.18;;;7.80;;
81242;SDS011;70716;50.074;14.496;2023-06-22T14:40:35;11.57;;;7.57;;
81242;SDS011;70716;50.074;14.496;2023-06-22T14:43:00;9.68;;;7.40;;
81242;SDS011;70716;50.074;14.496;2023-06-22T14:45:25;10.55;;;7.07;;
81242;SDS011;70716;50.074;14.496;2023-06-22T14:47:51;12.95;;;7.75;;
81242;SDS011;70716;50.074;14.496;2023-06-22T14:50:17;11.10;;;7.10;;
81242;SDS011;70716;50.074;14.496;2023-06-22T14:52:43;11.98;;;7.63;;
81242;SDS011;70716;50.074;14.496;2023-06-22T14:55:09;13.57;;;7.88;;
81242;SDS011;70716;50.074;14.496;2023-06-22T14:57:34;11.40;;;7.10;;
81242;SDS011;70716;50.074;14.496;2023-06-22T15:00:00;10.60;;;7.60;;
81242;SDS011;70716;50.074;14.496;2023-06-22T15:02:27;9.95;;;7.13;;
81242;SDS011;70716;50.074;14.496;2023-06-22T15:04:52;10.93;;;7.00;;
81242;SDS011;70716;50.074;14.496;2023-06-22T15:07:19;13.02;;;8.07;;
81242;SDS011;70716;50.074;14.496;2023-06-22T15:09:46;13.25;;;7.60;;
81242;SDS011;70716;50.074;14.496;2023-06-22T15:12:11;9.55;;;7.00;;
81242;SDS011;70716;50.074;14.496;2023-06-22T15:14:45;11.40;;;7.97;;
81242;SDS011;70716;50.074;14.496;2023-06-22T15:17:14;11.20;;;6.78;;
81242;SDS011;70716;50.074;14.496;2023-06-22T15:19:40;11.02;;;7.50;;
81242;SDS011;70716;50.074;14.496;2023-06-22T15:22:06;12.52;;;7.20;;
81242;SDS011;70716;50.074;14.496;2023-06-22T15:24:35;11.65;;;6.93;;
81242;SDS011;70716;50.074;14.496;2023-06-22T15:27:00;11.88;;;8.02;;
81242;SDS011;70716;50.074;14.496;2023-06-22T15:29:27;10.05;;;7.05;;
81242;SDS011;70716;50.074;14.496;2023-06-22T15:31:55;10.98;;;7.15;;
81242;SDS011;70716;50.074;14.496;2023-06-22T15:34:20;10.05;;;7.30;;
81242;SDS011;70716;50.074;14.496;2023-06-22T15:36:48;10.85;;;7.10;;
81242;SDS011;70716;50.074;14.496;2023-06-22T15:39:14;10.57;;;7.43;;
81242;SDS011;70716;50.074;14.496;2023-06-22T15:41:41;10.13;;;6.90;;
81242;SDS011;70716;50.074;14.496;2023-06-22T15:44:10;9.93;;;6.97;;
81242;SDS011;70716;50.074;14.496;2023-06-22T15:49:05;9.80;;;7.40;;
81242;SDS011;70716;50.074;14.496;2023-06-22T15:51:31;9.57;;;7.20;;
81242;SDS011;70716;50.074;14.496;2023-06-22T15:53:56;10.65;;;7.68;;
81242;SDS011;70716;50.074;14.496;2023-06-22T15:56:22;11.52;;;7.95;;
81242;SDS011;70716;50.074;14.496;2023-06-22T15:58:49;9.85;;;7.40;;
81242;SDS011;70716;50.074;14.496;2023-06-22T16:01:15;10.45;;;7.47;;
81242;SDS011;70716;50.074;14.496;2023-06-22T16:03:41;11.88;;;8.43;;
81242;SDS011;70716;50.074;14.496;2023-06-22T16:06:09;11.30;;;9.13;;
81242;SDS011;70716;50.074;14.496;2023-06-22T16:08:35;11.80;;;8.20;;
81242;SDS011;70716;50.074;14.496;2023-06-22T16:11:00;10.40;;;8.15;;
81242;SDS011;70716;50.074;14.496;2023-06-22T16:13:26;10.93;;;7.90;;
81242;SDS011;70716;50.074;14.496;2023-06-22T16:15:51;11.70;;;8.18;;
81242;SDS011;70716;50.074;14.496;2023-06-22T16:18:17;11.35;;;8.35;;
81242;SDS011;70716;50.074;14.496;2023-06-22T16:20:42;10.05;;;8.15;;
81242;SDS011;70716;50.074;14.496;2023-06-22T16:23:08;11.15;;;7.90;;
81242;SDS011;70716;50.074;14.496;2023-06-22T16:25:33;12.38;;;7.68;;
81242;SDS011;70716;50.074;14.496;2023-06-22T16:28:00;10.85;;;7.72;;
81242;SDS011;70716;50.074;14.496;2023-06-22T16:30:27;12.13;;;7.68;;
81242;SDS011;70716;50.074;14.496;2023-06-22T16:32:56;10.85;;;7.30;;
81242;SDS011;70716;50.074;14.496;2023-06-22T16:35:25;12.00;;;7.40;;
81242;SDS011;70716;50.074;14.496;2023-06-22T16:37:55;11.20;;;7.82;;
81242;SDS011;70716;50.074;14.496;2023-06-22T16:40:21;11.07;;;6.88;;
81242;SDS011;70716;50.074;14.496;2023-06-22T16:42:47;11.00;;;7.40;;
81242;SDS011;70716;50.074;14.496;2023-06-22T16:45:13;11.10;;;7.88;;
81242;SDS011;70716;50.074;14.496;2023-06-22T16:47:40;12.35;;;7.25;;
81242;SDS011;70716;50.074;14.496;2023-06-22T16:50:06;11.05;;;6.72;;
81242;SDS011;70716;50.074;14.496;2023-06-22T16:52:34;10.40;;;7.25;;
81242;SDS011;70716;50.074;14.496;2023-06-22T16:55:02;12.93;;;7.15;;
81242;SDS011;70716;50.074;14.496;2023-06-22T16:57:30;9.63;;;6.80;;
81242;SDS011;70716;50.074;14.496;2023-06-22T16:59:55;10.98;;;7.45;;
81242;SDS011;70716;50.074;14.496;2023-06-22T17:02:22;11.48;;;7.40;;
81242;SDS011;70716;50.074;14.496;2023-06-22T17:04:53;11.23;;;7.88;;
81242;SDS011;70716;50.074;14.496;2023-06-22T17:07:20;11.65;;;7.57;;
81242;SDS011;70716;50.074;14.496;2023-06-22T17:09:48;11.32;;;8.07;;
81242;SDS011;70716;50.074;14.496;2023-06-22T17:12:15;11.45;;;7.40;;
81242;SDS011;70716;50.074;14.496;2023-06-22T17:14:48;11.05;;;7.80;;
81242;SDS011;70716;50.074;14.496;2023-06-22T17:17:17;11.18;;;7.35;;
81242;SDS011;70716;50.074;14.496;2023-06-22T17:19:43;11.20;;;7.57;;
81242;SDS011;70716;50.074;14.496;2023-06-22T17:22:10;12.25;;;7.25;;
81242;SDS011;70716;50.074;14.496;2023-06-22T17:27:02;10.20;;;7.25;;
81242;SDS011;70716;50.074;14.496;2023-06-22T17:29:31;14.20;;;8.57;;
81242;SDS011;70716;50.074;14.496;2023-06-22T17:31:58;12.38;;;7.93;;
81242;SDS011;70716;50.074;14.496;2023-06-22T17:34:27;12.75;;;8.30;;
81242;SDS011;70716;50.074;14.496;2023-06-22T17:36:54;14.45;;;8.90;;
81242;SDS011;70716;50.074;14.496;2023-06-22T17:39:21;10.98;;;7.13;;
81242;SDS011;70716;50.074;14.496;2023-06-22T17:41:49;12.38;;;8.00;;
81242;SDS011;70716;50.074;14.496;2023-06-22T17:46:50;11.93;;;8.27;;
81242;SDS011;70716;50.074;14.496;2023-06-22T17:49:17;12.25;;;7.38;;
81242;SDS011;70716;50.074;14.496;2023-06-22T17:51:49;12.55;;;8.13;;
81242;SDS011;70716;50.074;14.496;2023-06-22T17:54:15;11.55;;;8.38;;
81242;SDS011;70716;50.074;14.496;2023-06-22T17:56:40;11.43;;;8.63;;
81242;SDS011;70716;50.074;14.496;2023-06-22T17:59:13;13.13;;;8.80;;
81242;SDS011;70716;50.074;14.496;2023-06-22T18:01:38;12.73;;;8.48;;
81242;SDS011;70716;50.074;14.496;2023-06-22T18:04:14;12.77;;;9.20;;
81242;SDS011;70716;50.074;14.496;2023-06-22T18:06:43;11.98;;;7.25;;
81242;SDS011;70716;50.074;14.496;2023-06-22T18:09:15;11.00;;;8.05;;
81242;SDS011;70716;50.074;14.496;2023-06-22T18:11:44;9.75;;;7.40;;
81242;SDS011;70716;50.074;14.496;2023-06-22T18:14:13;13.48;;;8.27;;
81242;SDS011;70716;50.074;14.496;2023-06-22T18:16:40;10.73;;;7.60;;
81242;SDS011;70716;50.074;14.496;2023-06-22T18:19:08;10.70;;;7.85;;
81242;SDS011;70716;50.074;14.496;2023-06-22T18:21:34;10.30;;;7.65;;
81242;SDS011;70716;50.074;14.496;2023-06-22T18:24:01;15.45;;;8.18;;
81242;SDS011;70716;50.074;14.496;2023-06-22T18:26:27;11.63;;;7.72;;